Time;durP1;ratioP1;P1;durP2;ratioP2;P2;SDS_P1;SDS_P2;PMS_P1;PMS_P2;Temp;Humidity;BMP_temperature;BMP_pressure;BME280_temperature;BME280_humidity;BME280_pressure;Samples;Min_cycle;Max_cycle;Signal;HPM_P1;HPM_P2
2021/11/23 00:01:26;;;;;;;25.65;15.27;;;0.80;99.90;;;;;;5010304;28;20240;-59
2021/11/23 00:03:54;;;;;;;22.50;15.02;;;0.90;99.90;;;;;;5011927;28;20240;-59
2021/11/23 00:06:23;;;;;;;26.25;16.75;;;1.00;99.90;;;;;;4997325;28;20276;-58
2021/11/23 00:08:51;;;;;;;26.95;15.48;;;1.00;99.90;;;;;;4992681;28;20186;-61
2021/11/23 00:11:20;;;;;;;24.75;14.70;;;1.00;99.90;;;;;;4991048;28;20226;-59
2021/11/23 00:13:48;;;;;;;21.73;13.63;;;1.10;99.90;;;;;;4992499;28;20241;-60
2021/11/23 00:16:17;;;;;;;25.15;15.73;;;1.10;99.90;;;;;;4991646;28;20317;-57
2021/11/23 00:18:46;;;;;;;21.88;13.90;;;1.20;99.90;;;;;;4992387;28;20187;-59
2021/11/23 00:21:14;;;;;;;18.70;12.52;;;1.10;99.90;;;;;;4992175;28;20276;-60
2021/11/23 00:23:43;;;;;;;25.20;14.85;;;1.10;99.90;;;;;;4992464;28;20201;-59
2021/11/23 00:26:11;;;;;;;21.95;13.55;;;1.00;99.90;;;;;;4991675;28;20663;-58
2021/11/23 00:28:41;;;;;;;23.75;13.05;;;0.90;99.90;;;;;;4992469;28;20273;-60
2021/11/23 00:31:09;;;;;;;20.88;14.27;;;0.90;99.90;;;;;;4991709;28;20221;-60
2021/11/23 00:33:42;;;;;;;19.42;13.48;;;0.80;99.90;;;;;;4992263;28;20202;-60
2021/11/23 00:36:11;;;;;;;17.65;13.00;;;0.80;99.90;;;;;;4994573;28;20281;-59
2021/11/23 00:38:42;;;;;;;18.85;13.43;;;0.70;99.90;;;;;;4994928;28;20194;-58
2021/11/23 00:41:10;;;;;;;20.15;12.15;;;0.70;99.90;;;;;;4995688;28;20596;-60
2021/11/23 00:43:39;;;;;;;18.00;13.27;;;0.60;99.90;;;;;;4996098;28;20202;-60
2021/11/23 00:46:08;;;;;;;22.80;13.50;;;0.60;99.90;;;;;;4995394;28;20284;-58
2021/11/23 00:48:36;;;;;;;17.50;13.25;;;0.50;99.90;;;;;;4996057;28;20251;-58
2021/11/23 00:51:05;;;;;;;20.08;12.77;;;0.50;99.90;;;;;;5008442;28;20225;-60
2021/11/23 00:53:34;;;;;;;21.38;13.77;;;0.50;99.90;;;;;;4995902;28;20198;-60
2021/11/23 00:56:02;;;;;;;21.55;12.60;;;0.50;99.90;;;;;;4994742;28;20222;-59
2021/11/23 00:58:30;;;;;;;24.27;13.98;;;0.50;99.90;;;;;;4996079;28;20199;-59
2021/11/23 01:00:58;;;;;;;17.13;13.38;;;0.50;99.90;;;;;;4995330;28;20222;-60
2021/11/23 01:03:32;;;;;;;19.33;11.98;;;0.50;99.90;;;;;;4995712;28;20240;-60
2021/11/23 01:06:00;;;;;;;19.05;13.43;;;0.40;99.90;;;;;;4994941;28;20226;-58
2021/11/23 01:08:29;;;;;;;21.73;12.90;;;0.40;99.90;;;;;;4995486;28;20186;-58
2021/11/23 01:10:58;;;;;;;17.17;12.32;;;0.50;99.90;;;;;;4995104;28;20296;-60
2021/11/23 01:13:26;;;;;;;26.10;13.98;;;0.50;99.90;;;;;;4995408;28;20316;-60
2021/11/23 01:15:54;;;;;;;20.15;14.25;;;0.40;99.90;;;;;;4994856;28;20317;-59
2021/11/23 01:18:22;;;;;;;25.70;13.75;;;0.50;99.90;;;;;;4995327;28;20289;-59
2021/11/23 01:20:52;;;;;;;22.23;14.13;;;0.50;99.90;;;;;;4994565;28;20258;-60
2021/11/23 01:23:20;;;;;;;20.70;15.00;;;0.50;99.90;;;;;;4995510;28;20228;-59
2021/11/23 01:25:48;;;;;;;18.55;11.77;;;0.50;99.90;;;;;;4994757;28;20249;-58
2021/11/23 01:28:16;;;;;;;20.70;14.70;;;0.50;99.90;;;;;;4995488;28;20292;-57
2021/11/23 01:30:44;;;;;;;17.63;13.23;;;0.60;99.90;;;;;;4995014;28;20692;-61
2021/11/23 01:33:13;;;;;;;20.38;13.68;;;0.60;99.90;;;;;;4995032;28;20194;-61
2021/11/23 01:35:41;;;;;;;26.30;13.57;;;0.60;99.90;;;;;;4994109;28;20221;-58
2021/11/23 01:38:13;;;;;;;36.97;14.60;;;0.50;99.90;;;;;;4994805;28;20218;-58
2021/11/23 01:40:41;;;;;;;21.95;14.00;;;0.50;99.90;;;;;;4994582;28;20237;-60
2021/11/23 01:43:10;;;;;;;20.85;12.40;;;0.50;99.90;;;;;;4999779;28;20212;-59
2021/11/23 01:45:40;;;;;;;26.63;14.02;;;0.50;99.90;;;;;;5013508;28;20221;-58
2021/11/23 01:48:09;;;;;;;21.77;15.38;;;0.50;99.90;;;;;;5013844;28;20202;-57
2021/11/23 01:50:39;;;;;;;25.08;14.80;;;0.50;99.90;;;;;;5013178;28;20268;-59
2021/11/23 01:53:08;;;;;;;24.80;15.20;;;0.50;99.90;;;;;;5014577;28;20260;-60
2021/11/23 01:55:40;;;;;;;29.80;15.70;;;0.50;99.90;;;;;;5013478;28;20692;-59
2021/11/23 01:58:11;;;;;;;23.63;14.63;;;0.50;99.90;;;;;;5001063;28;20255;-57
2021/11/23 02:00:40;;;;;;;20.17;14.95;;;0.40;99.90;;;;;;4994144;28;20225;-59
2021/11/23 02:03:09;;;;;;;18.83;13.45;;;0.40;99.90;;;;;;4994773;28;20309;-60
2021/11/23 02:05:39;;;;;;;21.27;13.32;;;0.40;99.90;;;;;;4993751;28;20592;-59
2021/11/23 02:08:07;;;;;;;25.00;13.52;;;0.40;99.90;;;;;;4994478;28;20689;-57
2021/11/23 02:10:37;;;;;;;20.10;13.65;;;0.50;99.90;;;;;;4993944;28;20233;-60
2021/11/23 02:13:05;;;;;;;24.13;12.93;;;0.50;99.90;;;;;;4994418;28;20252;-61
2021/11/23 02:15:33;;;;;;;29.25;13.27;;;0.40;99.90;;;;;;4993565;28;20281;-58
2021/11/23 02:18:13;;;;;;;17.90;13.40;;;0.40;99.90;;;;;;4994269;28;20215;-58
2021/11/23 02:20:43;;;;;;;19.38;12.82;;;0.40;99.90;;;;;;4993937;28;20641;-60
2021/11/23 02:23:11;;;;;;;21.33;15.27;;;0.40;99.90;;;;;;4994272;28;20190;-60
2021/11/23 02:25:40;;;;;;;19.52;13.35;;;0.40;99.90;;;;;;4993260;28;20276;-58
2021/11/23 02:28:09;;;;;;;19.90;13.85;;;0.50;99.90;;;;;;4993831;28;20214;-59
2021/11/23 02:30:40;;;;;;;20.90;13.38;;;0.50;99.90;;;;;;4993764;28;20609;-60
2021/11/23 02:33:09;;;;;;;19.67;13.30;;;0.40;99.90;;;;;;4994198;28;20194;-60
2021/11/23 02:35:37;;;;;;;20.50;13.18;;;0.40;99.90;;;;;;4993136;28;20296;-58
2021/11/23 02:38:06;;;;;;;21.67;12.60;;;0.40;99.90;;;;;;4993696;28;20211;-59
2021/11/23 02:40:34;;;;;;;21.15;14.15;;;0.40;99.90;;;;;;4993392;28;20247;-62
2021/11/23 02:43:03;;;;;;;20.33;13.25;;;0.50;99.90;;;;;;4994141;28;20253;-60
2021/11/23 02:45:31;;;;;;;30.58;15.02;;;0.50;99.90;;;;;;4992904;28;20245;-61
2021/11/23 02:48:01;;;;;;;23.73;14.85;;;0.40;99.90;;;;;;4993832;28;20207;-58
2021/11/23 02:50:30;;;;;;;20.00;13.88;;;0.40;99.90;;;;;;5003262;28;20209;-60
2021/11/23 02:52:59;;;;;;;19.63;14.10;;;0.40;99.90;;;;;;4996620;28;20653;-60
2021/11/23 02:55:32;;;;;;;27.50;13.60;;;0.40;99.90;;;;;;4993060;28;20273;-59
2021/11/23 02:58:01;;;;;;;24.80;13.77;;;0.30;99.90;;;;;;5004830;28;20623;-58
2021/11/23 03:00:30;;;;;;;16.38;13.25;;;0.20;99.90;;;;;;5012555;28;20696;-60
2021/11/23 03:02:58;;;;;;;22.90;13.23;;;0.20;99.90;;;;;;5013047;28;20230;-61
2021/11/23 03:05:28;;;;;;;23.55;13.80;;;0.20;99.90;;;;;;5003252;28;20246;-60
2021/11/23 03:07:57;;;;;;;21.83;13.95;;;0.20;99.90;;;;;;4993304;28;20225;-58
2021/11/23 03:10:28;;;;;;;24.73;12.10;;;0.20;99.90;;;;;;4993132;28;20218;-60
2021/11/23 03:12:57;;;;;;;16.70;12.25;;;0.20;99.90;;;;;;4993204;28;20237;-60
2021/11/23 03:15:27;;;;;;;17.63;12.48;;;0.10;99.90;;;;;;4992504;28;20604;-61
2021/11/23 03:17:58;;;;;;;18.98;11.02;;;0.10;99.90;;;;;;4993032;28;20237;-58
2021/11/23 03:20:27;;;;;;;19.70;11.88;;;0.10;99.90;;;;;;4992512;28;20226;-60
2021/11/23 03:22:56;;;;;;;20.55;11.27;;;0.00;99.90;;;;;;4993169;28;20293;-60
2021/11/23 03:25:25;;;;;;;13.30;10.65;;;0.00;99.90;;;;;;4992412;28;20709;-61
2021/11/23 03:27:53;;;;;;;19.70;10.95;;;0.00;99.90;;;;;;4993038;28;20257;-58
2021/11/23 03:30:25;;;;;;;17.02;11.00;;;-0.10;99.90;;;;;;4992683;28;20308;-60
2021/11/23 03:32:58;;;;;;;20.25;11.32;;;-0.10;99.90;;;;;;4992953;28;20198;-60
2021/11/23 03:35:29;;;;;;;19.63;11.30;;;-0.10;99.90;;;;;;4992296;28;20233;-60
2021/11/23 03:37:57;;;;;;;18.52;11.20;;;-0.10;99.90;;;;;;4992627;28;20214;-58
2021/11/23 03:40:28;;;;;;;17.45;11.40;;;-0.10;99.90;;;;;;4992419;28;20299;-60
2021/11/23 03:42:56;;;;;;;17.88;12.52;;;-0.10;99.90;;;;;;4996884;28;20256;-60
2021/11/23 03:45:26;;;;;;;22.65;12.45;;;-0.10;99.90;;;;;;4992075;28;20766;-60
2021/11/23 03:47:55;;;;;;;18.98;11.60;;;-0.10;99.90;;;;;;4992760;28;20334;-58
2021/11/23 03:50:23;;;;;;;20.92;11.73;;;-0.10;99.90;;;;;;4998493;28;20232;-60
2021/11/23 03:52:52;;;;;;;18.63;12.05;;;-0.10;99.90;;;;;;4992558;28;20190;-59
2021/11/23 03:55:21;;;;;;;28.77;12.15;;;-0.10;99.90;;;;;;4991886;28;20230;-60
2021/11/23 03:57:51;;;;;;;21.02;12.80;;;-0.10;99.90;;;;;;4992717;28;20214;-58
2021/11/23 04:00:21;;;;;;;23.13;12.43;;;-0.20;99.90;;;;;;4992243;28;20277;-58
2021/11/23 04:02:53;;;;;;;18.20;12.88;;;-0.10;99.90;;;;;;4998572;28;20196;-59
2021/11/23 04:05:21;;;;;;;17.85;12.23;;;-0.10;99.90;;;;;;5013255;28;20688;-60
2021/11/23 04:07:49;;;;;;;17.38;13.18;;;-0.10;99.90;;;;;;4992498;28;20225;-58
2021/11/23 04:10:18;;;;;;;16.83;11.63;;;0.00;99.90;;;;;;4990576;28;20213;-58
2021/11/23 04:12:47;;;;;;;18.85;13.23;;;0.00;99.90;;;;;;4992745;28;20195;-60
2021/11/23 04:15:15;;;;;;;18.60;12.25;;;0.00;99.90;;;;;;4991785;28;20268;-60
2021/11/23 04:17:44;;;;;;;19.65;13.07;;;0.00;99.90;;;;;;4992629;28;20273;-58
2021/11/23 04:20:14;;;;;;;16.55;12.38;;;0.00;99.90;;;;;;4991679;28;20272;-58
2021/11/23 04:22:43;;;;;;;22.52;13.50;;;0.00;99.90;;;;;;4992523;28;20198;-60
2021/11/23 04:25:11;;;;;;;20.80;12.18;;;0.00;99.90;;;;;;4991538;28;20242;-60
2021/11/23 04:27:40;;;;;;;25.50;13.75;;;0.10;99.90;;;;;;4992436;28;20755;-58
2021/11/23 04:30:10;;;;;;;24.38;13.88;;;0.00;99.90;;;;;;4991850;28;20225;-58
2021/11/23 04:32:39;;;;;;;21.10;11.98;;;0.00;99.90;;;;;;4992348;28;20198;-60
2021/11/23 04:35:08;;;;;;;22.33;14.05;;;-0.10;99.90;;;;;;4991469;28;20697;-60
2021/11/23 04:37:37;;;;;;;25.08;15.05;;;0.00;99.90;;;;;;4992227;28;20210;-58
2021/11/23 04:40:07;;;;;;;25.95;13.68;;;0.00;99.90;;;;;;4991824;28;20226;-57
2021/11/23 04:42:36;;;;;;;21.70;15.60;;;0.10;99.90;;;;;;4992127;28;20609;-61
2021/11/23 04:45:06;;;;;;;23.55;14.07;;;0.20;99.90;;;;;;4991201;28;20238;-60
2021/11/23 04:47:34;;;;;;;15.88;11.77;;;0.30;99.90;;;;;;4992169;28;20218;-57
2021/11/23 04:50:03;;;;;;;21.55;13.98;;;0.40;99.90;;;;;;4998459;28;20640;-57
2021/11/23 04:52:31;;;;;;;19.00;13.52;;;0.40;99.90;;;;;;5001878;28;20195;-61
2021/11/23 04:55:01;;;;;;;20.55;15.07;;;0.50;99.90;;;;;;4991342;28;20705;-60
2021/11/23 04:57:30;;;;;;;20.58;14.98;;;0.60;99.90;;;;;;4992154;28;20241;-59
2021/11/23 04:59:58;;;;;;;21.90;14.27;;;0.70;99.90;;;;;;4991743;28;20230;-58
2021/11/23 05:02:26;;;;;;;25.50;13.85;;;0.70;99.90;;;;;;4992175;28;20277;-60
2021/11/23 05:04:54;;;;;;;20.67;13.63;;;0.80;99.90;;;;;;4991454;28;20624;-59
2021/11/23 05:07:22;;;;;;;22.33;14.30;;;0.90;99.90;;;;;;4991847;28;20756;-59
2021/11/23 05:09:50;;;;;;;21.35;14.88;;;0.90;99.90;;;;;;4991642;28;20218;-59
2021/11/23 05:12:20;;;;;;;24.05;12.90;;;0.90;99.90;;;;;;4991880;28;20191;-59
2021/11/23 05:14:48;;;;;;;19.05;12.43;;;0.90;99.90;;;;;;4990098;28;20629;-60
2021/11/23 05:17:16;;;;;;;19.65;13.77;;;0.90;99.90;;;;;;4991940;28;20210;-59
2021/11/23 05:19:45;;;;;;;21.42;14.32;;;0.90;99.90;;;;;;4991457;28;20305;-59
2021/11/23 05:22:13;;;;;;;23.42;14.10;;;0.80;99.90;;;;;;4993306;28;20195;-61
2021/11/23 05:24:41;;;;;;;21.23;14.48;;;0.80;99.90;;;;;;4994489;28;20233;-60
2021/11/23 05:27:09;;;;;;;21.13;14.10;;;0.80;99.90;;;;;;4995548;28;20577;-59
2021/11/23 05:29:39;;;;;;;20.15;13.25;;;0.80;99.90;;;;;;4995118;28;20226;-57
2021/11/23 05:32:08;;;;;;;20.15;12.85;;;0.80;99.90;;;;;;4995336;28;20277;-60
2021/11/23 05:34:36;;;;;;;21.63;13.75;;;0.90;99.90;;;;;;4996226;28;20305;-60
2021/11/23 05:37:05;;;;;;;20.92;14.15;;;0.90;99.90;;;;;;4994902;28;20704;-57
2021/11/23 05:39:33;;;;;;;21.02;14.40;;;0.90;99.90;;;;;;4994628;28;20245;-58
2021/11/23 05:42:02;;;;;;;19.88;13.32;;;0.90;99.90;;;;;;4995094;28;20199;-60
2021/11/23 05:44:31;;;;;;;22.83;13.52;;;1.00;99.90;;;;;;4994199;28;20206;-59
2021/11/23 05:47:00;;;;;;;21.67;13.00;;;1.10;99.90;;;;;;4994887;28;20218;-57
2021/11/23 05:49:28;;;;;;;20.92;14.10;;;1.10;99.90;;;;;;4996603;28;20241;-57
2021/11/23 05:51:58;;;;;;;22.13;14.27;;;1.20;99.90;;;;;;5011110;28;20587;-59
2021/11/23 05:54:26;;;;;;;18.33;12.45;;;1.20;99.90;;;;;;5005528;28;20199;-61
2021/11/23 05:56:54;;;;;;;18.92;13.02;;;1.20;99.90;;;;;;4994787;28;20221;-60
2021/11/23 05:59:22;;;;;;;21.45;13.68;;;1.20;99.90;;;;;;5005648;28;20659;-57
2021/11/23 06:01:51;;;;;;;21.48;13.73;;;1.20;99.90;;;;;;5014314;28;20856;-60
2021/11/23 06:04:20;;;;;;;23.42;14.60;;;1.20;99.90;;;;;;5013194;28;20198;-60
2021/11/23 06:06:49;;;;;;;21.65;13.80;;;1.30;99.90;;;;;;4998426;28;20214;-59
2021/11/23 06:09:17;;;;;;;21.63;14.25;;;1.30;99.90;;;;;;4993902;28;20241;-58
2021/11/23 06:11:45;;;;;;;19.10;13.55;;;1.40;99.90;;;;;;5006055;28;20185;-59
2021/11/23 06:14:13;;;;;;;24.90;14.90;;;1.40;99.90;;;;;;4997912;28;20186;-60
2021/11/23 06:16:45;;;;;;;18.48;12.48;;;1.50;99.90;;;;;;5005220;28;20224;-59
2021/11/23 06:19:14;;;;;;;17.15;12.63;;;1.50;99.90;;;;;;5010189;28;20211;-58
2021/11/23 06:21:43;;;;;;;20.25;14.57;;;1.60;99.90;;;;;;4994536;28;20206;-58
2021/11/23 06:24:12;;;;;;;19.85;14.05;;;1.60;99.90;;;;;;5004244;28;20194;-60
2021/11/23 06:26:40;;;;;;;24.33;14.07;;;1.60;99.90;;;;;;4992712;28;20632;-59
2021/11/23 06:29:09;;;;;;;24.08;15.57;;;1.70;99.90;;;;;;4974941;28;20196;-59
2021/11/23 06:31:37;;;;;;;24.33;15.52;;;1.70;99.90;;;;;;4974201;28;20243;-59
2021/11/23 06:34:07;;;;;;;30.13;16.48;;;1.80;99.90;;;;;;4973762;28;20191;-60
2021/11/23 06:36:36;;;;;;;25.02;14.90;;;1.80;99.90;;;;;;4988077;28;20222;-61
2021/11/23 06:39:07;;;;;;;22.30;14.75;;;1.80;99.90;;;;;;4993792;28;20214;-58
2021/11/23 06:41:35;;;;;;;23.25;14.52;;;1.90;99.90;;;;;;4991352;28;20218;-58
2021/11/23 06:44:04;;;;;;;27.92;14.13;;;1.90;99.90;;;;;;4973891;28;20214;-60
2021/11/23 06:46:32;;;;;;;22.13;16.70;;;1.80;99.90;;;;;;4973831;28;20713;-59
2021/11/23 06:49:03;;;;;;;25.02;15.38;;;1.90;99.90;;;;;;4973250;28;20191;-58
2021/11/23 06:51:31;;;;;;;22.92;14.40;;;1.90;99.90;;;;;;4973960;28;20645;-58
2021/11/23 06:53:59;;;;;;;24.05;14.93;;;2.00;99.90;;;;;;4974116;28;20199;-59
2021/11/23 06:56:29;;;;;;;23.15;15.38;;;2.00;99.90;;;;;;4991503;28;20314;-61
2021/11/23 06:58:57;;;;;;;24.40;14.77;;;2.00;99.90;;;;;;4993744;28;20600;-58
2021/11/23 07:01:25;;;;;;;19.45;14.13;;;2.00;99.90;;;;;;4992906;28;20221;-59
2021/11/23 07:03:53;;;;;;;30.02;18.40;;;2.10;99.90;;;;;;4993324;28;20191;-60
2021/11/23 07:06:21;;;;;;;26.25;18.20;;;2.10;99.90;;;;;;4992874;28;20257;-60
2021/11/23 07:08:50;;;;;;;26.75;16.27;;;2.20;99.90;;;;;;4993182;28;20195;-58
2021/11/23 07:11:18;;;;;;;21.50;15.05;;;2.20;99.90;;;;;;4992651;28;20234;-58
2021/11/23 07:13:48;;;;;;;28.20;17.90;;;2.20;99.90;;;;;;5010609;28;20202;-60
2021/11/23 07:16:16;;;;;;;24.83;17.10;;;2.30;99.90;;;;;;5012158;28;20233;-59
2021/11/23 07:18:44;;;;;;;24.42;16.38;;;2.30;99.90;;;;;;5012785;28;20281;-58
2021/11/23 07:21:12;;;;;;;27.42;17.20;;;2.30;99.90;;;;;;5010535;28;20230;-58
2021/11/23 07:23:58;;;;;;;28.58;18.58;;;2.30;99.90;;;;;;4993235;28;20186;-60
2021/11/23 07:26:27;;;;;;;31.27;15.80;;;2.40;99.90;;;;;;4992213;28;20647;-60
2021/11/23 07:28:56;;;;;;;22.92;15.35;;;2.40;99.90;;;;;;4993429;28;20286;-58
2021/11/23 07:31:24;;;;;;;18.90;13.50;;;2.40;99.90;;;;;;4992371;28;20221;-58
2021/11/23 07:33:53;;;;;;;21.80;14.90;;;2.40;99.90;;;;;;4996871;28;20190;-60
2021/11/23 07:36:22;;;;;;;19.27;14.25;;;2.40;99.90;;;;;;5008805;28;20210;-60
2021/11/23 07:38:54;;;;;;;17.80;12.73;;;2.40;99.90;;;;;;5008766;28;20240;-58
2021/11/23 07:41:22;;;;;;;19.13;12.88;;;2.40;99.90;;;;;;5011862;28;20573;-59
2021/11/23 07:43:51;;;;;;;15.60;12.55;;;2.40;99.90;;;;;;5005418;28;20289;-59
2021/11/23 07:46:20;;;;;;;18.35;12.95;;;2.40;99.90;;;;;;5011384;28;20226;-59
2021/11/23 07:48:48;;;;;;;18.05;11.70;;;2.40;99.90;;;;;;5012607;28;20296;-58
2021/11/23 07:51:16;;;;;;;17.95;12.00;;;2.50;99.90;;;;;;5011851;28;20218;-58
2021/11/23 07:53:45;;;;;;;21.88;13.68;;;2.50;99.90;;;;;;4992851;28;20203;-59
2021/11/23 07:56:13;;;;;;;20.77;13.20;;;2.60;99.90;;;;;;5006244;28;20758;-60
2021/11/23 07:58:41;;;;;;;19.35;12.82;;;2.60;99.90;;;;;;5007235;28;20451;-59
2021/11/23 08:01:09;;;;;;;19.38;12.50;;;2.70;99.90;;;;;;4992161;28;20218;-59
2021/11/23 08:03:40;;;;;;;22.42;12.75;;;2.70;99.90;;;;;;4991428;28;20269;-60
2021/11/23 08:06:08;;;;;;;21.25;13.43;;;2.80;99.90;;;;;;4991906;28;20276;-60
2021/11/23 08:08:36;;;;;;;20.27;13.65;;;2.80;99.90;;;;;;5004964;28;20193;-59
2021/11/23 08:11:05;;;;;;;19.05;13.40;;;2.70;99.90;;;;;;5011500;28;20209;-59
2021/11/23 08:13:33;;;;;;;18.50;13.90;;;2.80;99.90;;;;;;4995361;28;20198;-61
2021/11/23 08:16:03;;;;;;;21.85;14.45;;;2.80;99.90;;;;;;4977010;28;20705;-60
2021/11/23 08:18:33;;;;;;;22.50;13.77;;;3.00;99.90;;;;;;4976567;28;20194;-59
2021/11/23 08:21:03;;;;;;;21.52;12.88;;;3.10;99.90;;;;;;5006180;28;20221;-59
2021/11/23 08:23:32;;;;;;;19.45;12.43;;;3.30;99.90;;;;;;5010885;28;20193;-60
2021/11/23 08:26:01;;;;;;;17.42;12.27;;;3.40;99.90;;;;;;4996373;28;20225;-59
2021/11/23 08:28:30;;;;;;;23.10;14.02;;;3.40;99.90;;;;;;4976903;28;20199;-59
2021/11/23 08:30:59;;;;;;;21.92;12.30;;;3.50;99.90;;;;;;4999891;28;20217;-59
2021/11/23 08:33:27;;;;;;;15.80;10.88;;;3.60;99.90;;;;;;5011801;28;20234;-60
2021/11/23 08:35:58;;;;;;;21.95;13.88;;;3.70;99.90;;;;;;5000664;28;20688;-60
2021/11/23 08:38:27;;;;;;;16.02;12.90;;;3.60;99.90;;;;;;5011572;28;20210;-59
2021/11/23 08:40:56;;;;;;;22.15;14.93;;;3.30;99.90;;;;;;4997388;28;20226;-58
2021/11/23 08:43:24;;;;;;;21.65;13.27;;;2.90;99.90;;;;;;4981015;28;20258;-60
2021/11/23 08:45:52;;;;;;;21.20;12.65;;;2.90;99.90;;;;;;4990746;28;20759;-60
2021/11/23 08:48:20;;;;;;;22.55;12.90;;;3.00;99.90;;;;;;4972615;28;20211;-60
2021/11/23 08:50:49;;;;;;;20.50;12.93;;;2.90;99.90;;;;;;4978773;28;20226;-58
2021/11/23 08:53:17;;;;;;;17.98;12.02;;;3.00;99.90;;;;;;4976723;28;20206;-60
2021/11/23 08:55:46;;;;;;;17.38;12.40;;;3.20;99.90;;;;;;4973164;28;20231;-60
2021/11/23 08:58:14;;;;;;;17.98;12.35;;;3.40;99.90;;;;;;4976462;28;20219;-60
2021/11/23 09:00:44;;;;;;;15.43;10.38;;;3.40;99.90;;;;;;4975812;28;20281;-58
2021/11/23 09:03:12;;;;;;;17.10;11.50;;;3.60;99.90;;;;;;4980095;28;20198;-58
2021/11/23 09:05:41;;;;;;;20.35;13.95;;;3.50;99.90;;;;;;4993048;28;20234;-61
2021/11/23 09:08:09;;;;;;;20.95;13.60;;;3.40;99.90;;;;;;4986964;28;20609;-60
2021/11/23 09:10:39;;;;;;;19.25;13.20;;;3.50;99.90;;;;;;4995277;28;20222;-59
2021/11/23 09:13:09;;;;;;;19.80;13.07;;;3.50;99.90;;;;;;4982689;28;20755;-59
2021/11/23 09:15:38;;;;;;;25.30;15.95;;;3.60;99.90;;;;;;4975375;28;20223;-61
2021/11/23 09:18:09;;;;;;;20.02;14.70;;;3.70;99.90;;;;;;4975926;28;20542;-60
2021/11/23 09:20:37;;;;;;;21.85;15.65;;;3.80;99.90;;;;;;4982793;28;20265;-59
2021/11/23 09:23:08;;;;;;;22.67;16.08;;;3.60;99.90;;;;;;4982740;28;20611;-59
2021/11/23 09:25:37;;;;;;;23.88;14.80;;;3.70;99.90;;;;;;4975111;28;20281;-59
2021/11/23 09:28:05;;;;;;;24.52;15.82;;;3.80;99.90;;;;;;4986261;28;20301;-58
2021/11/23 09:30:36;;;;;;;21.38;14.90;;;4.00;99.90;;;;;;4994514;28;20611;-57
2021/11/23 09:33:05;;;;;;;21.10;14.68;;;4.20;99.90;;;;;;5010659;28;20198;-57
2021/11/23 09:35:33;;;;;;;29.00;16.67;;;4.30;99.90;;;;;;4994478;28;20787;-59
2021/11/23 09:38:02;;;;;;;25.95;15.63;;;4.40;99.90;;;;;;4990028;28;20273;-59
2021/11/23 09:40:31;;;;;;;23.48;14.93;;;4.50;99.90;;;;;;4994687;28;20222;-57
2021/11/23 09:43:00;;;;;;;19.30;13.02;;;4.60;99.90;;;;;;4983182;28;20708;-58
2021/11/23 09:45:28;;;;;;;20.42;13.50;;;4.70;99.90;;;;;;4974789;28;20285;-58
2021/11/23 09:47:59;;;;;;;18.98;13.82;;;4.80;99.90;;;;;;4975587;28;20215;-59
2021/11/23 09:50:27;;;;;;;17.90;13.38;;;5.00;99.90;;;;;;4975187;28;20663;-58
2021/11/23 09:52:56;;;;;;;24.25;16.13;;;5.10;99.90;;;;;;4991573;28;20253;-58
2021/11/23 09:55:24;;;;;;;23.95;15.70;;;5.10;99.90;;;;;;4974779;28;20238;-60
2021/11/23 09:57:52;;;;;;;24.45;13.80;;;5.00;99.90;;;;;;4983355;28;20305;-59
2021/11/23 10:00:28;;;;;;;25.23;14.43;;;5.00;99.90;;;;;;4994185;28;20226;-57
2021/11/23 10:03:07;;;;;;;18.75;13.40;;;4.70;99.90;;;;;;4994580;28;20218;-58
2021/11/23 10:05:37;;;;;;;23.55;15.07;;;4.70;99.90;;;;;;4994006;28;20297;-59
2021/11/23 10:08:13;;;;;;;18.95;14.13;;;4.70;99.90;;;;;;4979334;28;20211;-60
2021/11/23 10:10:48;;;;;;;18.40;13.80;;;4.80;99.90;;;;;;4987725;28;20635;-58
2021/11/23 10:13:16;;;;;;;18.30;13.57;;;4.70;99.90;;;;;;4980572;28;20237;-59
2021/11/23 10:15:48;;;;;;;15.98;11.40;;;4.70;99.90;;;;;;4973215;28;20231;-59
2021/11/23 10:18:23;;;;;;;19.80;12.95;;;4.90;99.90;;;;;;4974681;28;20693;-58
2021/11/23 10:20:55;;;;;;;21.33;12.45;;;5.00;99.90;;;;;;4974457;28;20215;-58
2021/11/23 10:23:27;;;;;;;18.35;11.27;;;5.00;99.90;;;;;;4974685;28;20226;-58
2021/11/23 10:25:56;;;;;;;13.23;10.73;;;5.10;99.90;;;;;;4974260;28;20225;-60
2021/11/23 10:28:28;;;;;;;16.15;10.90;;;5.30;99.90;;;;;;4975187;28;20756;-60
2021/11/23 10:30:58;;;;;;;16.67;9.80;;;5.50;99.90;;;;;;4987925;28;20700;-58
2021/11/23 10:33:28;;;;;;;17.80;9.57;;;5.60;99.90;;;;;;4993955;28;20195;-57
2021/11/23 10:35:59;;;;;;;19.50;13.00;;;5.70;99.90;;;;;;4993629;28;20219;-58
2021/11/23 10:38:27;;;;;;;14.30;10.10;;;5.80;99.90;;;;;;4993831;28;20634;-59
2021/11/23 10:40:56;;;;;;;11.27;9.63;;;5.80;99.90;;;;;;4993531;28;20723;-58
2021/11/23 10:43:24;;;;;;;14.68;10.23;;;5.70;99.90;;;;;;4993317;28;20211;-58
2021/11/23 10:45:55;;;;;;;17.83;10.32;;;5.60;99.90;;;;;;4994343;28;20227;-59
2021/11/23 10:48:25;;;;;;;17.02;10.68;;;5.70;99.90;;;;;;5013553;28;20214;-59
2021/11/23 10:51:04;;;;;;;15.25;9.85;;;5.80;99.90;;;;;;5006038;28;20222;-57
2021/11/23 10:53:33;;;;;;;18.10;11.10;;;5.80;99.90;;;;;;4993772;28;20199;-58
2021/11/23 10:56:10;;;;;;;15.35;10.43;;;5.90;99.90;;;;;;4992731;28;20226;-59
2021/11/23 10:58:39;;;;;;;18.73;9.85;;;6.20;99.90;;;;;;4993384;28;20194;-60
2021/11/23 11:01:10;;;;;;;17.15;10.35;;;6.40;99.90;;;;;;4998542;28;20206;-58
2021/11/23 11:03:40;;;;;;;15.18;10.50;;;6.60;99.90;;;;;;5012966;28;20686;-58
2021/11/23 11:06:10;;;;;;;14.88;11.88;;;6.60;99.90;;;;;;4992462;28;20238;-60
2021/11/23 11:08:42;;;;;;;18.00;11.25;;;6.60;99.90;;;;;;4993828;28;20673;-59
2021/11/23 11:11:15;;;;;;;14.07;9.70;;;6.60;99.90;;;;;;4992555;28;20224;-59
2021/11/23 11:13:48;;;;;;;13.27;9.23;;;6.80;99.90;;;;;;4985749;28;20244;-58
2021/11/23 11:16:18;;;;;;;11.10;7.65;;;6.90;99.90;;;;;;4992534;28;20224;-60
2021/11/23 11:19:06;;;;;;;8.25;4.75;;;7.00;99.90;;;;;;4993153;28;20679;-59
2021/11/23 11:21:40;;;;;;;13.52;4.78;;;7.10;99.90;;;;;;4990178;28;20223;-58
2021/11/23 11:24:25;;;;;;;12.82;4.63;;;7.10;99.90;;;;;;4990494;28;20239;-58
2021/11/23 11:26:56;;;;;;;6.90;4.32;;;7.10;99.90;;;;;;4991837;28;20229;-59
2021/11/23 11:29:28;;;;;;;10.85;6.20;;;7.10;99.90;;;;;;4992675;28;20672;-60
2021/11/23 11:31:59;;;;;;;12.15;5.93;;;7.10;99.90;;;;;;4992553;28;20189;-59
2021/11/23 11:34:31;;;;;;;14.00;5.65;;;7.10;99.90;;;;;;4992164;28;20194;-60
2021/11/23 11:37:11;;;;;;;9.00;5.18;;;7.10;99.90;;;;;;4973506;28;20714;-59
2021/11/23 11:40:03;;;;;;;16.48;6.40;;;7.00;99.90;;;;;;4972939;28;20589;-60
2021/11/23 11:42:52;;;;;;;18.35;6.40;;;7.00;99.90;;;;;;4972181;28;20215;-57
2021/11/23 11:45:22;;;;;;;12.43;8.25;;;6.90;99.90;;;;;;4977924;28;20562;-59
2021/11/23 11:47:52;;;;;;;17.02;9.70;;;6.90;99.90;;;;;;4992851;28;20301;-59
2021/11/23 11:50:24;;;;;;;11.25;6.22;;;7.00;99.90;;;;;;4991970;28;20265;-58
2021/11/23 11:53:09;;;;;;;23.60;6.68;;;7.00;99.90;;;;;;4985877;28;20228;-58
2021/11/23 11:55:47;;;;;;;13.80;6.93;;;7.00;99.90;;;;;;4974478;28;20216;-59
2021/11/23 11:58:42;;;;;;;19.45;6.95;;;7.20;99.90;;;;;;4981341;28;20262;-59
2021/11/23 12:01:30;;;;;;;11.63;6.47;;;7.30;99.90;;;;;;4991879;28;20230;-59
2021/11/23 12:04:10;;;;;;;15.32;8.98;;;7.30;99.90;;;;;;4972887;28;20219;-57
2021/11/23 12:07:03;;;;;;;14.65;7.88;;;7.30;99.90;;;;;;4972920;28;20224;-58
2021/11/23 12:09:34;;;;;;;13.68;6.70;;;7.30;99.90;;;;;;4974953;28;20681;-58
2021/11/23 12:12:34;;;;;;;13.85;7.40;;;7.10;99.90;;;;;;4992826;28;20191;-57
2021/11/23 12:15:22;;;;;;;14.80;8.88;;;7.00;99.90;;;;;;5004160;28;20234;-59
2021/11/23 12:18:21;;;;;;;15.13;7.47;;;7.00;99.90;;;;;;5010018;28;20210;-59
2021/11/23 12:21:03;;;;;;;17.95;9.35;;;7.10;99.90;;;;;;5011601;28;20236;-58
2021/11/23 12:23:37;;;;;;;16.17;8.43;;;7.10;99.90;;;;;;5011778;28;20279;-58
2021/11/23 12:26:14;;;;;;;11.88;8.32;;;7.00;99.90;;;;;;5011018;28;20283;-59
2021/11/23 12:28:52;;;;;;;17.35;9.15;;;7.00;99.90;;;;;;4994439;28;20202;-59
2021/11/23 12:31:21;;;;;;;18.90;9.32;;;7.00;99.90;;;;;;4994160;28;20272;-58
2021/11/23 12:33:52;;;;;;;19.55;10.98;;;6.90;99.90;;;;;;4994910;28;20187;-58
2021/11/23 12:36:23;;;;;;;18.52;9.98;;;6.80;99.90;;;;;;4995516;28;20222;-60
2021/11/23 12:38:53;;;;;;;16.48;10.30;;;6.80;99.90;;;;;;4996513;28;20257;-59
2021/11/23 12:41:24;;;;;;;11.85;8.32;;;6.80;99.90;;;;;;4995551;28;20228;-58
2021/11/23 12:43:54;;;;;;;25.13;10.32;;;6.80;99.90;;;;;;4996079;28;20624;-57
2021/11/23 12:46:25;;;;;;;15.25;9.88;;;6.70;99.90;;;;;;4995284;28;20584;-60
2021/11/23 12:48:55;;;;;;;17.15;10.32;;;6.60;99.90;;;;;;5006348;28;20756;-60
2021/11/23 12:51:29;;;;;;;18.08;11.07;;;6.50;99.90;;;;;;5011657;28;20226;-58
2021/11/23 12:54:01;;;;;;;17.45;10.00;;;6.50;99.90;;;;;;5014349;28;20580;-58